»·PEaware :: ASQ5710 KDEN-KSLC

ASQ5710 :: KDEN-KSLC

FLIGHT INFORMATION

Flight Status: Arrived
Operator:
Atlantic Southeast Airlines
More flights by this operator :: More flights under this callsign
Pilot: Joe Ross (10326)
Aircraft: CANADAIR CL-600 CRJ-200
(CRJ2)
More flights by this aircraft type
Origin: KDEN Denver Intl
United States
Destination: KSLC Salt Lake City Intl
United States
More flights between these airports :: More routes between these airports
Route: +FOOOT3 RLG EKR LEEHY4
File this flight plan on PilotEdge
Remarks:
Altitude:
(Current/Filed)
28,000ft
Speed:
(Current/Filed)
445kts
Departed: 08-Jan-17 07:53 PM
Arrived: 08-Jan-17 09:14 PM
Distance/Time
Traveled:
339nm/1:21
Distance/Time
To Go:
Arrived

Flight Plot

Page will automatically refresh every two minutes.


Map Options




Map Legend


Flown Route
Filed Route
Departure Airport
Arrival Airport
Navaid (VOR, NDB)
Fix

Horizontal Profiles

Position Reports

Time Latitude Longitude Heading Altitude Ground
Speed
08-Jan-17 19:11 39.859458 -104.678399 180 5436ft 0kts
08-Jan-17 19:12 39.859458 -104.678399 180 5436ft 0kts
08-Jan-17 19:13 39.859458 -104.678399 180 5436ft 0kts
08-Jan-17 19:14 39.859458 -104.678399 180 5436ft 0kts
08-Jan-17 19:15 39.859458 -104.678399 180 5436ft 0kts
08-Jan-17 19:16 39.859458 -104.678399 180 5436ft 0kts
08-Jan-17 19:17 39.859458 -104.678399 180 5436ft 0kts
08-Jan-17 19:18 39.859458 -104.678399 180 5436ft 0kts
08-Jan-17 19:19 39.859458 -104.678399 180 5436ft 0kts
08-Jan-17 19:20 39.859458 -104.678399 180 5436ft 0kts
08-Jan-17 19:21 39.859458 -104.678399 180 5436ft 0kts
08-Jan-17 19:22 39.859458 -104.678399 180 5436ft 0kts
08-Jan-17 19:23 39.859458 -104.678399 180 5436ft 0kts
08-Jan-17 19:24 39.859458 -104.678399 180 5436ft 0kts
08-Jan-17 19:25 39.859458 -104.678399 180 5436ft 0kts
08-Jan-17 19:26 39.859458 -104.678399 180 5436ft 0kts
08-Jan-17 19:27 39.859458 -104.678399 180 5436ft 0kts
08-Jan-17 19:28 39.859458 -104.678399 180 5436ft 0kts
08-Jan-17 19:29 39.859458 -104.678399 180 5436ft 0kts
08-Jan-17 19:30 39.859458 -104.678399 180 5436ft 0kts
08-Jan-17 19:31 39.859458 -104.678399 180 5436ft 0kts
08-Jan-17 19:32 39.859458 -104.678399 180 5436ft 0kts
08-Jan-17 19:33 39.859458 -104.678399 180 5436ft 0kts
08-Jan-17 19:34 39.859458 -104.678399 180 5436ft 0kts
08-Jan-17 19:35 39.859458 -104.678399 180 5436ft 0kts
08-Jan-17 19:36 39.859458 -104.678399 180 5436ft 0kts
08-Jan-17 19:37 39.859451 -104.678399 179 5436ft 0kts
08-Jan-17 19:38 39.859808 -104.678431 182 5436ft 0kts
08-Jan-17 19:39 39.860123 -104.678245 199 5436ft 0kts
08-Jan-17 19:40 39.860123 -104.678245 199 5436ft 0kts
08-Jan-17 19:41 39.860123 -104.678245 199 5436ft 0kts
08-Jan-17 19:42 39.860123 -104.678245 199 5436ft 0kts
08-Jan-17 19:43 39.860123 -104.678245 199 5436ft 0kts
08-Jan-17 19:44 39.860123 -104.678245 199 5436ft 0kts
08-Jan-17 19:45 39.860123 -104.678245 199 5436ft 0kts
08-Jan-17 19:46 39.860045 -104.677937 84 5436ft 6kts
08-Jan-17 19:47 39.860236 -104.671769 98 5436ft 20kts
08-Jan-17 19:48 39.860150 -104.664594 91 5436ft 12kts
08-Jan-17 19:49 39.861048 -104.661736 92 5436ft 0kts
08-Jan-17 19:50 39.861048 -104.661736 92 5436ft 0kts
08-Jan-17 19:51 39.861048 -104.661736 92 5436ft 0kts
08-Jan-17 19:52 39.861048 -104.661736 92 5436ft 0kts
08-Jan-17 19:53 39.859208 -104.660168 181 5436ft 54kts
08-Jan-17 19:54 39.818905 -104.660419 201 6714ft 178kts
08-Jan-17 19:55 39.824140 -104.711882 304 9248ft 189kts
08-Jan-17 19:56 39.857854 -104.780154 298 10027ft 281kts
08-Jan-17 19:57 39.898731 -104.875145 297 10928ft 321kts
08-Jan-17 19:58 39.941778 -104.978076 291 13650ft 327kts
08-Jan-17 19:59 39.957870 -105.090516 275 16274ft 318kts
08-Jan-17 20:00 39.970767 -105.199272 275 18364ft 320kts
08-Jan-17 20:01 39.979233 -105.272125 275 19559ft 323kts
08-Jan-17 20:02 39.981983 -105.431931 267 21792ft 327kts
08-Jan-17 20:03 39.978374 -105.550728 267 23203ft 331kts
08-Jan-17 20:04 39.974774 -105.671024 268 24444ft 335kts
08-Jan-17 20:05 39.972295 -105.792884 268 25540ft 338kts
08-Jan-17 20:06 39.974340 -105.916010 273 26516ft 342kts
08-Jan-17 20:07 39.980846 -106.037117 274 28194ft 323kts
08-Jan-17 20:08 39.987527 -106.155630 274 28333ft 346kts
08-Jan-17 20:09 39.994492 -106.284590 274 28340ft 367kts
08-Jan-17 20:10 40.001509 -106.419607 274 28340ft 376kts
08-Jan-17 20:11 40.008262 -106.555846 274 28334ft 378kts
08-Jan-17 20:12 40.014864 -106.692883 274 28328ft 380kts
08-Jan-17 20:13 40.021329 -106.830223 274 28323ft 380kts
08-Jan-17 20:14 40.027643 -106.968091 274 28317ft 381kts
08-Jan-17 20:15 40.033762 -107.105165 273 28303ft 381kts
08-Jan-17 20:16 40.040029 -107.241733 273 28275ft 384kts
08-Jan-17 20:17 40.045927 -107.380723 273 28264ft 384kts
08-Jan-17 20:18 40.051622 -107.519423 273 28273ft 384kts
08-Jan-17 20:19 40.057160 -107.658604 273 28276ft 384kts
08-Jan-17 20:20 40.062538 -107.797672 273 28279ft 382kts
08-Jan-17 20:21 40.067833 -107.934760 273 28277ft 381kts
08-Jan-17 20:22 40.074036 -108.072737 273 28275ft 380kts
08-Jan-17 20:23 40.080370 -108.207488 272 28270ft 382kts
08-Jan-17 20:24 40.086365 -108.345856 272 28267ft 384kts
08-Jan-17 20:25 40.092226 -108.485440 272 28265ft 385kts
08-Jan-17 20:26 40.097909 -108.624889 272 28283ft 385kts
08-Jan-17 20:27 40.103437 -108.764599 273 28305ft 385kts
08-Jan-17 20:28 40.108780 -108.903957 273 28317ft 385kts
08-Jan-17 20:29 40.113959 -109.042995 272 28322ft 384kts
08-Jan-17 20:30 40.119202 -109.180388 271 28334ft 385kts
08-Jan-17 20:31 40.124106 -109.320076 271 28332ft 386kts
08-Jan-17 20:32 40.128818 -109.460212 271 28330ft 386kts
08-Jan-17 20:33 40.133348 -109.600084 271 28328ft 386kts
08-Jan-17 20:34 40.137717 -109.740549 271 28326ft 386kts
08-Jan-17 20:35 40.141899 -109.880115 271 28324ft 386kts
08-Jan-17 20:36 40.145870 -110.018410 271 28323ft 385kts
08-Jan-17 20:37 40.148733 -110.148356 269 28335ft 385kts
08-Jan-17 20:38 40.147945 -110.288419 268 28341ft 386kts
08-Jan-17 20:39 40.146665 -110.427212 268 27508ft 378kts
08-Jan-17 20:40 40.145234 -110.563714 268 26181ft 372kts
08-Jan-17 20:41 40.143672 -110.697391 268 24748ft 367kts
08-Jan-17 20:42 40.141968 -110.829711 268 24345ft 374kts
08-Jan-17 20:43 40.140056 -110.967987 267 24294ft 386kts
08-Jan-17 20:44 40.137970 -111.107412 266 23563ft 385kts
08-Jan-17 20:45 40.136130 -111.239087 265 22083ft 349kts
08-Jan-17 20:46 40.134019 -111.360052 265 20610ft 329kts
08-Jan-17 20:47 40.131864 -111.476301 264 19196ft 315kts
08-Jan-17 20:48 40.146061 -111.590381 288 19015ft 359kts
08-Jan-17 20:49 40.189160 -111.707449 289 18294ft 357kts
08-Jan-17 20:50 40.231999 -111.823906 289 17610ft 355kts
08-Jan-17 20:51 40.278973 -111.937030 310 17030ft 365kts
08-Jan-17 20:52 40.353925 -111.999854 319 16295ft 278kts
08-Jan-17 20:53 40.416206 -112.046569 330 14261ft 264kts
08-Jan-17 20:54 40.489956 -112.059194 345 11984ft 272kts
08-Jan-17 20:55 40.562430 -112.068956 346 11031ft 258kts
08-Jan-17 20:56 40.633159 -112.078313 346 11008ft 253kts
08-Jan-17 20:57 40.703296 -112.086574 346 11014ft 258kts
08-Jan-17 20:58 40.773503 -112.094786 346 11010ft 250kts
08-Jan-17 20:59 40.835716 -112.102043 346 11017ft 256kts
08-Jan-17 21:00 40.907789 -112.110298 346 11007ft 263kts
08-Jan-17 21:01 40.979739 -112.118818 346 11003ft 259kts
08-Jan-17 21:02 41.052688 -112.127532 346 11006ft 268kts
08-Jan-17 21:03 41.126303 -112.133524 10 10997ft 274kts
08-Jan-17 21:04 41.149839 -112.056133 134 9565ft 237kts
08-Jan-17 21:05 41.110231 -112.001636 170 7690ft 176kts
08-Jan-17 21:06 41.067120 -112.004813 183 6997ft 145kts
08-Jan-17 21:07 41.029155 -112.002377 180 7002ft 136kts
08-Jan-17 21:08 40.991129 -111.998348 180 7002ft 138kts
08-Jan-17 21:09 40.952867 -111.993922 180 6998ft 133kts
08-Jan-17 21:10 40.916590 -111.989688 181 6368ft 133kts
08-Jan-17 21:11 40.880779 -111.985483 182 5670ft 123kts
08-Jan-17 21:12 40.844935 -111.981343 181 5009ft 141kts
08-Jan-17 21:13 40.804621 -111.976600 177 4240ft 138kts
08-Jan-17 21:14 40.786027 -111.974906 194 4232ft 20kts
08-Jan-17 21:15 40.784837 -111.975554 209 4232ft 0kts
08-Jan-17 21:16 40.784716 -111.976476 353 4232ft 7kts
08-Jan-17 21:17 40.786890 -111.978051 291 4232ft 0kts
08-Jan-17 21:18 40.786890 -111.978051 291 4232ft 0kts

Navigation Log

Ident Type
1. KDEN Airport
2. PENEY Fix
3. RLG Navaid
4. EKR Navaid
5. RACER Fix
6. MTU Navaid
7. THISL Fix
8. SPANE Fix
9. LEEHY Fix
10. BLUPE Fix
11. KAMMP Fix
12. PLAGE Fix
13. KSLC Airport